Overview Statistics Trail Chart Weather Telemetry Raw packets
 

This is the latest recevied weather packets stored in our database for station/object EA3AGY-13. If no packets are shown the sender has not sent any weather packets the latest 10 day(s).

<< 22 23 24 25 26 >>
Time Temp. Humidity Pressure Rain* Wind** Luminosity Snow
1787762817 21.11° C 23% 1016.3 hPa 0 mm - - -
1787762215 22.22° C 25% 1016.4 hPa 0 mm - - -
1787761010 22.22° C 20% 1016.5 hPa 0 mm - - -
1787760408 22.78° C 15% 1016.5 hPa 0 mm - - -
1787759805 23.89° C 13% 1016.5 hPa 0 mm - - -
1787758600 24.44° C 15% 1016.6 hPa 0 mm - - -
1787757999 23.33° C 12% 1016.6 hPa 0 mm - - -
1787757396 24.44° C 11% 1016.6 hPa 0 mm - - -
1787756191 24.44° C 14% 1016.4 hPa 0 mm - - -
1787755589 25° C 20% 1016.4 hPa 0 mm - - -
1787754987 24.44° C 24% 1016.3 hPa 0 mm - - -
1787753782 25° C 23% 1016.2 hPa 0 mm - - -
1787753181 23.89° C 20% 1016.2 hPa 0 mm - - -
1787752579 23.89° C 25% 1016.3 hPa 0 mm - - -
1787751974 23.89° C 28% 1016.2 hPa 0 mm - - -
1787751371 23.33° C 29% 1016.3 hPa 0 mm - - -
1787750771 22.78° C 28% 1016.4 hPa 0 mm - - -
1787747758 20.56° C 31% 1017.5 hPa 0 mm - - -
1787746554 20° C 34% 1017.8 hPa 0 mm - - -
1787745951 19.44° C 35% 1018.2 hPa 0 mm - - -
1787744144 20° C 31% 1017.5 hPa 0 mm - - -
1787743543 20° C 24% 1017.5 hPa 0 mm - - -
1787741734 20.56° C 37% 1017 hPa 0 mm - - -
1787741133 20.56° C 40% 1017.2 hPa 0 mm - - -
1787740530 19.44° C 36% 1017.6 hPa 0 mm - - -

* Rain since midnight (hover to see other rain measurements)
** Current wind speed in m/s (hover to see current wind gust speed)